Time,TemperatureF,DewpointF,PressureIn,WindDirection,WindDirectionDegrees,WindSpeedMPH,WindSpeedGustMPH,Humidity,HourlyPrecipIn,Conditions,Clouds,dailyrainin,SoftwareType,DateUTC
2015-07-30 00:03:00,76.9,69.9,29.86,WSW,243,0.0,0.0,79,0.00,,---,0.00,VWS V15.00,2015-07-30 04:03:00,
2015-07-30 00:06:00,76.9,69.9,29.86,WSW,243,0.0,0.0,79,0.00,,---,0.00,VWS V15.00,2015-07-30 04:06:00,
2015-07-30 00:11:00,77.1,70.1,29.86,WSW,243,0.0,0.0,79,0.00,,---,0.00,VWS V15.00,2015-07-30 04:11:00,
2015-07-30 00:16:00,76.9,69.9,29.86,WSW,243,0.0,0.0,79,0.00,,---,0.00,VWS V15.00,2015-07-30 04:16:00,
2015-07-30 00:21:00,76.9,69.9,29.86,WSW,243,0.0,0.0,79,0.00,,---,0.00,VWS V15.00,2015-07-30 04:21:00,
2015-07-30 00:26:00,76.9,69.9,29.86,WSW,243,0.0,0.0,79,0.00,,---,0.00,VWS V15.00,2015-07-30 04:26:00,
2015-07-30 00:31:00,76.9,69.9,29.86,WSW,243,0.0,0.0,79,0.00,,---,0.00,VWS V15.00,2015-07-30 04:31:00,
2015-07-30 00:36:00,76.9,69.9,29.86,WSW,243,0.0,0.0,79,0.00,,---,0.00,VWS V15.00,2015-07-30 04:36:00,
2015-07-30 00:41:00,76.9,69.9,29.86,WSW,243,0.0,0.0,79,0.00,,---,0.00,VWS V15.00,2015-07-30 04:41:00,
2015-07-30 00:46:00,76.9,69.9,29.86,WSW,243,0.0,0.0,79,0.00,,---,0.00,VWS V15.00,2015-07-30 04:46:00,
2015-07-30 00:51:00,76.9,69.9,29.86,WSW,243,0.0,0.0,79,0.00,,---,0.00,VWS V15.00,2015-07-30 04:51:00,
2015-07-30 00:56:00,76.9,69.9,29.86,WSW,243,0.0,0.0,79,0.00,,---,0.00,VWS V15.00,2015-07-30 04:56:00,
2015-07-30 01:06:00,77.0,70.0,29.86,WSW,243,0.0,0.0,79,0.00,,---,0.00,VWS V15.00,2015-07-30 05:06:00,
2015-07-30 01:11:00,77.0,70.0,29.86,WSW,243,0.0,0.0,79,0.00,,---,0.00,VWS V15.00,2015-07-30 05:11:00,
2015-07-30 01:16:00,77.1,70.1,29.86,WSW,243,0.0,0.0,79,0.00,,---,0.00,VWS V15.00,2015-07-30 05:16:00,
2015-07-30 01:21:00,77.1,70.1,29.86,WSW,243,0.0,0.0,79,0.00,,---,0.00,VWS V15.00,2015-07-30 05:21:00,
2015-07-30 01:26:00,77.2,70.2,29.86,WSW,243,0.0,0.0,79,0.00,,---,0.00,VWS V15.00,2015-07-30 05:26:00,
2015-07-30 01:31:00,77.3,70.3,29.86,WSW,243,0.0,1.0,79,0.00,,---,0.00,VWS V15.00,2015-07-30 05:31:00,
2015-07-30 01:36:00,77.3,70.3,29.86,WSW,243,0.0,1.0,79,0.00,,---,0.00,VWS V15.00,2015-07-30 05:36:00,
2015-07-30 01:41:00,77.3,70.3,29.86,WSW,243,0.0,1.0,79,0.00,,---,0.00,VWS V15.00,2015-07-30 05:41:00,
2015-07-30 01:46:00,77.3,70.3,29.86,WSW,243,0.0,1.0,79,0.00,,---,0.00,VWS V15.00,2015-07-30 05:46:00,
2015-07-30 01:51:00,77.4,70.4,29.86,WSW,243,0.0,1.0,79,0.00,,---,0.00,VWS V15.00,2015-07-30 05:51:00,
2015-07-30 01:56:00,77.4,70.4,29.86,WSW,243,0.0,1.0,79,0.00,,---,0.00,VWS V15.00,2015-07-30 05:56:00,
2015-07-30 02:01:00,77.4,70.4,29.86,WSW,243,0.0,0.0,79,0.00,,---,0.00,VWS V15.00,2015-07-30 06:01:00,
2015-07-30 02:06:00,77.4,70.4,29.86,WSW,243,0.0,1.0,79,0.00,,---,0.00,VWS V15.00,2015-07-30 06:06:00,
2015-07-30 02:11:00,77.5,70.5,29.86,WSW,243,0.0,1.0,79,0.00,,---,0.00,VWS V15.00,2015-07-30 06:11:00,
2015-07-30 02:16:00,77.5,70.5,29.86,WSW,243,0.0,2.0,79,0.00,,---,0.00,VWS V15.00,2015-07-30 06:16:00,
2015-07-30 02:21:00,77.6,70.6,29.86,WSW,242,0.0,2.0,79,0.00,,---,0.00,VWS V15.00,2015-07-30 06:21:00,
2015-07-30 02:26:00,77.6,70.6,29.86,WSW,242,0.0,2.0,79,0.00,,---,0.00,VWS V15.00,2015-07-30 06:26:00,
2015-07-30 02:31:00,77.6,70.6,29.86,WSW,242,0.0,0.0,79,0.00,,---,0.00,VWS V15.00,2015-07-30 06:31:00,
2015-07-30 02:36:00,77.7,70.7,29.86,WSW,242,0.0,0.0,79,0.00,,---,0.00,VWS V15.00,2015-07-30 06:36:00,
2015-07-30 02:41:00,77.7,70.7,29.86,WSW,242,0.0,0.0,79,0.00,,---,0.00,VWS V15.00,2015-07-30 06:41:00,
2015-07-30 02:46:00,77.8,70.8,29.86,WSW,242,0.0,1.0,79,0.00,,---,0.00,VWS V15.00,2015-07-30 06:46:00,
2015-07-30 02:51:00,77.8,70.8,29.86,WSW,242,0.0,1.0,79,0.00,,---,0.00,VWS V15.00,2015-07-30 06:51:00,
2015-07-30 02:56:00,77.9,70.9,29.86,WSW,242,0.0,1.0,79,0.00,,---,0.00,VWS V15.00,2015-07-30 06:56:00,
2015-07-30 03:01:00,77.9,70.9,29.86,WSW,242,0.0,1.0,79,0.00,,---,0.00,VWS V15.00,2015-07-30 07:01:00,
2015-07-30 03:06:00,77.9,70.9,29.86,WSW,242,0.0,1.0,79,0.00,,---,0.00,VWS V15.00,2015-07-30 07:06:00,
2015-07-30 03:11:00,77.9,70.9,29.86,WSW,242,0.0,1.0,79,0.00,,---,0.00,VWS V15.00,2015-07-30 07:11:00,
2015-07-30 03:16:00,77.9,70.9,29.86,WSW,242,0.0,1.0,79,0.00,,---,0.00,VWS V15.00,2015-07-30 07:16:00,
2015-07-30 03:21:00,77.9,70.9,29.86,WSW,242,0.0,1.0,79,0.00,,---,0.00,VWS V15.00,2015-07-30 07:21:00,
2015-07-30 03:26:00,77.9,70.9,29.86,WSW,242,0.0,1.0,79,0.00,,---,0.00,VWS V15.00,2015-07-30 07:26:00,
2015-07-30 03:31:00,77.9,70.9,29.86,SSE,157,0.0,2.0,79,0.00,,---,0.00,VWS V15.00,2015-07-30 07:31:00,
2015-07-30 03:36:00,77.9,70.9,29.86,SSE,158,0.0,2.0,79,0.00,,---,0.00,VWS V15.00,2015-07-30 07:36:00,
2015-07-30 03:41:00,77.9,70.9,29.86,SSE,158,0.0,2.0,79,0.00,,---,0.00,VWS V15.00,2015-07-30 07:41:00,
2015-07-30 03:46:00,77.9,70.9,29.86,SSE,160,0.0,2.0,79,0.00,,---,0.00,VWS V15.00,2015-07-30 07:46:00,
2015-07-30 03:51:00,77.9,70.9,29.86,SSE,160,0.0,2.0,79,0.00,,---,0.00,VWS V15.00,2015-07-30 07:51:00,
2015-07-30 03:56:00,77.9,70.9,29.86,SSE,161,0.0,2.0,79,0.00,,---,0.00,VWS V15.00,2015-07-30 07:56:00,
2015-07-30 04:01:00,77.9,70.9,29.86,SSE,161,0.0,0.0,79,0.00,,---,0.00,VWS V15.00,2015-07-30 08:01:00,
2015-07-30 04:06:00,77.9,70.9,29.86,SSE,161,0.0,1.0,79,0.00,,---,0.00,VWS V15.00,2015-07-30 08:06:00,
2015-07-30 04:11:00,78.0,71.0,29.86,SSE,161,0.0,1.0,79,0.00,,---,0.00,VWS V15.00,2015-07-30 08:11:00,
2015-07-30 04:16:00,78.0,71.0,29.86,SSE,161,0.0,1.0,79,0.00,,---,0.00,VWS V15.00,2015-07-30 08:16:00,
2015-07-30 04:21:00,77.9,70.9,29.86,SSE,161,0.0,1.0,79,0.00,,---,0.00,VWS V15.00,2015-07-30 08:21:00,
2015-07-30 04:26:00,77.9,70.9,29.86,SSE,161,0.0,1.0,79,0.00,,---,0.00,VWS V15.00,2015-07-30 08:26:00,
2015-07-30 04:31:00,77.9,70.9,29.86,SSE,161,0.0,0.0,79,0.00,,---,0.00,VWS V15.00,2015-07-30 08:31:00,
2015-07-30 04:36:00,77.9,70.9,29.86,SSE,161,0.0,0.0,79,0.00,,---,0.00,VWS V15.00,2015-07-30 08:36:00,
2015-07-30 04:41:00,77.9,70.9,29.86,SSE,161,0.0,0.0,79,0.00,,---,0.00,VWS V15.00,2015-07-30 08:41:00,
2015-07-30 04:46:00,77.9,70.9,29.86,SSE,161,0.0,0.0,79,0.00,,---,0.00,VWS V15.00,2015-07-30 08:46:00,
2015-07-30 04:51:00,77.9,70.9,29.86,SSE,161,0.0,0.0,79,0.00,,---,0.00,VWS V15.00,2015-07-30 08:51:00,
2015-07-30 04:56:00,77.8,70.8,29.86,SSE,161,0.0,0.0,79,0.00,,---,0.00,VWS V15.00,2015-07-30 08:56:00,
2015-07-30 05:01:00,77.8,70.8,29.86,SSE,161,0.0,0.0,79,0.00,,---,0.00,VWS V15.00,2015-07-30 09:01:00,
2015-07-30 05:06:00,77.8,70.8,29.86,SSE,161,0.0,0.0,79,0.00,,---,0.00,VWS V15.00,2015-07-30 09:06:00,
2015-07-30 05:11:00,77.8,70.8,29.86,SSE,161,0.0,0.0,79,0.00,,---,0.00,VWS V15.00,2015-07-30 09:11:00,
2015-07-30 05:16:00,77.8,70.8,29.86,SSE,161,0.0,0.0,79,0.00,,---,0.00,VWS V15.00,2015-07-30 09:16:00,
2015-07-30 05:21:00,77.8,70.8,29.86,SSE,161,0.0,0.0,79,0.00,,---,0.00,VWS V15.00,2015-07-30 09:21:00,
2015-07-30 05:26:00,77.8,70.8,29.86,SSE,161,0.0,0.0,79,0.00,,---,0.00,VWS V15.00,2015-07-30 09:26:00,
2015-07-30 05:31:00,77.7,70.7,29.86,SSE,161,0.0,0.0,79,0.00,,---,0.00,VWS V15.00,2015-07-30 09:31:00,
2015-07-30 05:41:00,77.6,70.6,29.86,SSE,161,0.0,0.0,79,0.00,,---,0.00,VWS V15.00,2015-07-30 09:41:00,
2015-07-30 05:46:00,77.6,70.6,29.86,SSE,161,0.0,0.0,79,0.00,,---,0.00,VWS V15.00,2015-07-30 09:46:00,
2015-07-30 05:51:00,77.6,70.6,29.86,SSE,161,0.0,0.0,79,0.00,,---,0.00,VWS V15.00,2015-07-30 09:51:00,
2015-07-30 05:56:00,77.6,70.6,29.86,SSE,161,0.0,0.0,79,0.00,,---,0.00,VWS V15.00,2015-07-30 09:56:00,
2015-07-30 06:01:00,77.6,70.6,29.86,SSE,161,0.0,0.0,79,0.00,,---,0.00,VWS V15.00,2015-07-30 10:01:00,
2015-07-30 06:06:00,77.5,70.5,29.86,SSE,161,0.0,0.0,79,0.00,,---,0.00,VWS V15.00,2015-07-30 10:06:00,
2015-07-30 06:11:00,77.5,70.5,29.86,SSE,161,0.0,0.0,79,0.00,,---,0.00,VWS V15.00,2015-07-30 10:11:00,
2015-07-30 06:16:00,77.5,70.5,29.86,SSE,161,0.0,0.0,79,0.00,,---,0.00,VWS V15.00,2015-07-30 10:16:00,
2015-07-30 06:21:00,77.4,70.4,29.86,SSE,161,0.0,0.0,79,0.00,,---,0.00,VWS V15.00,2015-07-30 10:21:00,
2015-07-30 06:26:00,77.4,70.4,29.86,SSE,161,0.0,0.0,79,0.00,,---,0.00,VWS V15.00,2015-07-30 10:26:00,
2015-07-30 06:31:00,77.3,70.3,29.86,SSE,161,0.0,0.0,79,0.00,,---,0.00,VWS V15.00,2015-07-30 10:31:00,
2015-07-30 06:36:00,77.3,70.3,29.86,SSE,161,0.0,0.0,79,0.00,,---,0.00,VWS V15.00,2015-07-30 10:36:00,
2015-07-30 06:41:00,77.3,70.3,29.86,SSE,161,0.0,0.0,79,0.00,,---,0.00,VWS V15.00,2015-07-30 10:41:00,
2015-07-30 06:46:00,77.3,70.3,29.86,SSE,161,0.0,0.0,79,0.00,,---,0.00,VWS V15.00,2015-07-30 10:46:00,
2015-07-30 06:51:00,77.3,70.3,29.86,SSE,161,0.0,0.0,79,0.00,,---,0.00,VWS V15.00,2015-07-30 10:51:00,
2015-07-30 06:56:00,77.3,70.3,29.86,SSE,161,0.0,0.0,79,0.00,,---,0.00,VWS V15.00,2015-07-30 10:56:00,
2015-07-30 07:01:00,77.3,70.3,29.86,SSE,161,0.0,0.0,79,0.00,,---,0.00,VWS V15.00,2015-07-30 11:01:00,
2015-07-30 07:06:00,77.3,70.3,29.86,SSE,161,0.0,0.0,79,0.00,,---,0.00,VWS V15.00,2015-07-30 11:06:00,
2015-07-30 07:11:00,77.4,70.4,29.86,SSE,161,0.0,0.0,79,0.00,,---,0.00,VWS V15.00,2015-07-30 11:11:00,
2015-07-30 07:16:00,77.4,70.4,29.86,SSE,161,0.0,0.0,79,0.00,,---,0.00,VWS V15.00,2015-07-30 11:16:00,
2015-07-30 07:21:00,77.4,70.4,29.86,SSE,161,0.0,0.0,79,0.00,,---,0.00,VWS V15.00,2015-07-30 11:21:00,
2015-07-30 07:26:00,77.5,70.5,29.86,SSE,161,0.0,0.0,79,0.00,,---,0.00,VWS V15.00,2015-07-30 11:26:00,
2015-07-30 07:31:00,77.6,70.6,29.86,SSE,161,0.0,0.0,79,0.00,,---,0.00,VWS V15.00,2015-07-30 11:31:00,
2015-07-30 07:41:00,77.8,70.8,29.86,SSE,161,0.0,0.0,79,0.00,,---,0.00,VWS V15.00,2015-07-30 11:41:00,
2015-07-30 07:45:00,77.9,70.9,29.86,SSE,161,0.0,1.0,79,0.00,,---,0.00,VWS V15.00,2015-07-30 11:45:00,
2015-07-30 07:50:00,78.1,71.1,29.86,SSE,161,0.0,1.0,79,0.00,,---,0.00,VWS V15.00,2015-07-30 11:50:00,
2015-07-30 07:55:00,78.2,71.2,29.86,SSE,161,0.0,1.0,79,0.00,,---,0.00,VWS V15.00,2015-07-30 11:55:00,
2015-07-30 08:00:00,78.4,71.3,29.86,SSE,161,0.0,0.0,79,0.00,,---,0.00,VWS V15.00,2015-07-30 12:00:00,
2015-07-30 08:05:00,78.7,71.6,29.86,SSE,161,0.0,1.0,79,0.00,,---,0.00,VWS V15.00,2015-07-30 12:05:00,
2015-07-30 08:10:00,78.8,71.7,29.86,SSE,161,0.0,1.0,79,0.00,,---,0.00,VWS V15.00,2015-07-30 12:10:00,
2015-07-30 08:15:00,79.1,71.7,29.86,SSE,161,0.0,1.0,78,0.00,,---,0.00,VWS V15.00,2015-07-30 12:15:00,
2015-07-30 08:20:00,79.4,71.9,29.86,SSE,161,0.0,1.0,78,0.00,,---,0.00,VWS V15.00,2015-07-30 12:20:00,
2015-07-30 08:25:00,79.7,72.2,29.86,SSE,161,0.0,2.0,78,0.00,,---,0.00,VWS V15.00,2015-07-30 12:25:00,
2015-07-30 08:30:00,80.0,72.5,29.86,SSE,161,0.0,1.0,78,0.00,,---,0.00,VWS V15.00,2015-07-30 12:30:00,
2015-07-30 08:35:00,80.4,72.9,29.86,SSE,161,0.0,1.0,78,0.00,,---,0.00,VWS V15.00,2015-07-30 12:35:00,
2015-07-30 08:40:00,80.7,73.2,29.86,SSE,164,2.0,2.0,78,0.00,,---,0.00,VWS V15.00,2015-07-30 12:40:00,
2015-07-30 08:45:00,80.7,73.2,29.86,SSW,211,0.0,2.0,78,0.00,,---,0.00,VWS V15.00,2015-07-30 12:45:00,
2015-07-30 08:50:00,81.0,73.5,29.86,SSW,211,0.0,2.0,78,0.00,,---,0.00,VWS V15.00,2015-07-30 12:50:00,